createdAt,value
2022-08-26T00:01:56.149Z,5.15
2022-08-26T00:04:25.756Z,5.20
2022-08-26T00:06:57.155Z,4.82
2022-08-26T00:09:25.348Z,6.53
2022-08-26T00:11:54.441Z,5.70
2022-08-26T00:14:26.040Z,4.70
2022-08-26T00:16:57.743Z,5.22
2022-08-26T00:19:25.369Z,5.25
2022-08-26T00:21:53.018Z,5.32
2022-08-26T00:24:21.777Z,5.57
2022-08-26T00:26:49.997Z,5.15
2022-08-26T00:29:21.227Z,5.30
2022-08-26T00:31:52.307Z,5.50
2022-08-26T00:34:19.838Z,5.28
2022-08-26T00:36:49.366Z,5.90
2022-08-26T00:39:20.521Z,5.10
2022-08-26T00:41:48.760Z,5.72
2022-08-26T00:44:17.827Z,5.30
2022-08-26T00:46:49.074Z,5.70
2022-08-26T00:49:23.019Z,5.50
2022-08-26T00:51:53.698Z,5.15
2022-08-26T00:54:24.357Z,6.10
2022-08-26T00:57:08.683Z,5.45
2022-08-26T00:59:47.855Z,5.93
2022-08-26T01:02:20.314Z,6.07
2022-08-26T01:04:55.778Z,6.30
2022-08-26T01:07:30.136Z,5.22
2022-08-26T01:10:03.866Z,5.22
2022-08-26T01:12:34.418Z,4.75
2022-08-26T01:15:03.215Z,5.57
2022-08-26T01:17:33.739Z,5.00
2022-08-26T01:20:12.917Z,4.80
2022-08-26T01:23:01.645Z,5.40
2022-08-26T01:25:34.304Z,4.85
2022-08-26T01:28:07.073Z,5.32
2022-08-26T01:30:36.887Z,5.40
2022-08-26T01:33:11.080Z,5.03
2022-08-26T01:35:40.585Z,5.20
2022-08-26T01:38:08.694Z,4.43
2022-08-26T01:40:38.488Z,4.97
2022-08-26T01:43:08.558Z,4.80
2022-08-26T01:45:40.414Z,5.05
2022-08-26T01:48:13.922Z,5.03
2022-08-26T01:50:45.081Z,4.82
2022-08-26T01:53:16.411Z,5.75
2022-08-26T01:55:49.143Z,5.03
2022-08-26T01:58:28.187Z,4.93
2022-08-26T02:00:56.036Z,4.82
2022-08-26T02:03:25.344Z,4.93
2022-08-26T02:06:03.914Z,6.20
2022-08-26T02:08:48.198Z,5.28
2022-08-26T02:11:18.562Z,5.07
2022-08-26T02:13:54.895Z,5.60
2022-08-26T02:16:26.564Z,5.75
2022-08-26T02:18:55.314Z,5.00
2022-08-26T02:21:25.065Z,5.82
2022-08-26T02:23:53.629Z,5.38
2022-08-26T02:26:26.933Z,5.25
2022-08-26T02:29:08.753Z,4.80
2022-08-26T02:31:36.342Z,4.57
2022-08-26T02:34:13.677Z,4.80
2022-08-26T02:36:43.283Z,4.00
2022-08-26T02:39:11.250Z,5.20
2022-08-26T02:41:44.927Z,5.03
2022-08-26T02:44:13.226Z,3.92
2022-08-26T02:46:41.861Z,4.90
2022-08-26T02:49:16.245Z,4.75
2022-08-26T02:51:44.605Z,4.68
2022-08-26T02:54:13.389Z,5.72
2022-08-26T02:56:40.976Z,5.60
2022-08-26T02:59:09.570Z,5.60
2022-08-26T03:01:37.102Z,6.22
2022-08-26T03:04:06.634Z,6.05
2022-08-26T03:06:34.294Z,5.50
2022-08-26T03:09:01.825Z,5.38
2022-08-26T03:11:33.198Z,5.50
2022-08-26T03:14:03.797Z,5.67
2022-08-26T03:16:34.237Z,4.95
2022-08-26T03:19:02.932Z,5.13
2022-08-26T03:21:31.286Z,4.60
2022-08-26T03:23:59.720Z,5.32
2022-08-26T03:26:28.749Z,4.53
2022-08-26T03:29:15.767Z,4.78
2022-08-26T03:31:44.227Z,4.57
2022-08-26T03:34:15.061Z,5.75
2022-08-26T03:36:43.661Z,4.80
2022-08-26T03:39:13.141Z,4.15
2022-08-26T03:41:41.531Z,4.47
2022-08-26T03:44:09.067Z,5.15
2022-08-26T03:46:38.484Z,4.28
2022-08-26T03:49:06.118Z,5.03
2022-08-26T03:51:35.364Z,5.38
2022-08-26T03:56:36.778Z,4.88
2022-08-26T03:59:07.587Z,5.82
2022-08-26T04:01:36.887Z,4.40
2022-08-26T04:04:05.409Z,5.55
2022-08-26T04:06:40.018Z,5.22
2022-08-26T04:09:11.726Z,4.90
2022-08-26T04:11:41.981Z,5.38
2022-08-26T04:14:14.370Z,5.25
2022-08-26T04:16:46.204Z,5.07
2022-08-26T04:19:16.072Z,5.10
2022-08-26T04:21:45.193Z,5.05
2022-08-26T04:24:15.751Z,5.00
2022-08-26T04:26:44.003Z,4.70
2022-08-26T04:29:18.342Z,5.47
2022-08-26T04:31:48.198Z,6.05
2022-08-26T04:34:17.116Z,5.68
2022-08-26T04:36:44.891Z,5.43
2022-08-26T04:39:16.750Z,5.35
2022-08-26T04:41:48.573Z,4.65
2022-08-26T04:44:16.683Z,5.05
2022-08-26T04:46:45.322Z,5.03
2022-08-26T04:49:13.836Z,5.53
2022-08-26T04:51:41.362Z,5.13
2022-08-26T04:54:11.703Z,5.25
2022-08-26T04:56:41.957Z,4.80
2022-08-26T04:59:17.175Z,5.40
2022-08-26T05:01:48.650Z,4.93
2022-08-26T05:04:20.598Z,5.35
2022-08-26T05:06:48.925Z,5.77
2022-08-26T05:09:18.551Z,5.10
2022-08-26T05:11:51.867Z,4.97
2022-08-26T05:14:22.369Z,5.60
2022-08-26T05:16:51.029Z,5.60
2022-08-26T05:19:21.165Z,5.88
2022-08-26T05:21:49.500Z,5.47
2022-08-26T05:24:18.269Z,5.22
2022-08-26T05:26:49.533Z,5.90
2022-08-26T05:29:17.133Z,5.40
2022-08-26T05:31:44.600Z,5.13
2022-08-26T05:34:12.646Z,5.57
2022-08-26T05:36:40.224Z,5.97
2022-08-26T05:39:08.259Z,5.30
2022-08-26T05:41:41.113Z,5.05
2022-08-26T05:44:12.718Z,5.90
2022-08-26T05:46:44.827Z,5.75
2022-08-26T05:49:14.166Z,6.15
2022-08-26T05:51:45.208Z,19.92
2022-08-26T05:54:14.052Z,7.78
2022-08-26T05:56:52.244Z,5.90
2022-08-26T05:59:21.380Z,5.95
2022-08-26T06:01:54.832Z,6.68
2022-08-26T06:04:27.197Z,5.05
2022-08-26T06:06:58.612Z,7.93
2022-08-26T06:09:26.923Z,6.35
2022-08-26T06:11:54.538Z,8.27
2022-08-26T06:14:23.040Z,5.78
2022-08-26T06:16:50.530Z,6.10
2022-08-26T06:19:18.285Z,5.18
2022-08-26T06:21:54.218Z,6.00
2022-08-26T06:24:42.109Z,5.53
2022-08-26T06:27:13.487Z,5.97
2022-08-26T06:29:41.828Z,5.85
2022-08-26T06:32:09.314Z,5.57
2022-08-26T06:34:36.800Z,5.13
2022-08-26T06:37:06.439Z,4.75
2022-08-26T06:39:34.469Z,5.03
2022-08-26T06:42:03.258Z,4.90
2022-08-26T06:44:34.606Z,4.20
2022-08-26T06:47:02.112Z,4.80
2022-08-26T06:49:29.613Z,4.30
2022-08-26T06:51:59.917Z,3.90
2022-08-26T06:54:30.294Z,3.90
2022-08-26T06:56:58.481Z,4.00
2022-08-26T06:59:26.179Z,3.83
2022-08-26T07:01:54.766Z,3.92
2022-08-26T07:04:24.557Z,4.18
2022-08-26T07:06:53.748Z,4.13
2022-08-26T07:09:23.813Z,4.05
2022-08-26T07:11:52.043Z,4.10
2022-08-26T07:14:21.784Z,4.68
2022-08-26T07:16:50.347Z,4.40
2022-08-26T07:19:29.031Z,3.85
2022-08-26T07:22:02.189Z,4.63
2022-08-26T07:24:35.195Z,4.47
2022-08-26T07:27:06.304Z,4.82
2022-08-26T07:29:34.970Z,4.20
2022-08-26T07:32:04.053Z,4.40
2022-08-26T07:34:34.997Z,3.97
2022-08-26T07:37:02.413Z,3.97
2022-08-26T07:39:31.528Z,4.22
2022-08-26T07:42:07.861Z,3.97
2022-08-26T07:44:37.716Z,4.22
2022-08-26T07:47:10.228Z,4.18
2022-08-26T07:49:52.718Z,3.85
2022-08-26T07:52:25.348Z,4.32
2022-08-26T07:54:55.254Z,4.38
2022-08-26T07:57:24.327Z,4.60
2022-08-26T07:59:55.118Z,3.92
2022-08-26T08:02:23.934Z,3.88
2022-08-26T08:04:52.281Z,4.75
2022-08-26T08:07:20.184Z,4.80
2022-08-26T08:09:51.355Z,4.05
2022-08-26T08:12:19.983Z,3.90
2022-08-26T08:14:48.336Z,3.50
2022-08-26T08:17:16.443Z,3.95
2022-08-26T08:19:43.890Z,4.18
2022-08-26T08:22:17.980Z,3.90
2022-08-26T08:24:49.883Z,4.60
2022-08-26T08:27:23.651Z,4.35
2022-08-26T08:29:56.837Z,4.40
2022-08-26T08:32:24.313Z,4.95
2022-08-26T08:34:51.834Z,4.20
2022-08-26T08:37:19.483Z,5.55
2022-08-26T08:39:46.887Z,5.82
2022-08-26T08:42:31.480Z,4.78
2022-08-26T08:45:03.687Z,4.30
2022-08-26T08:47:42.962Z,4.97
2022-08-26T08:50:29.083Z,4.45
2022-08-26T08:53:04.466Z,4.18
2022-08-26T08:55:56.422Z,4.43
2022-08-26T08:59:10.430Z,4.13
2022-08-26T09:01:56.258Z,8.07
2022-08-26T09:04:42.377Z,4.45
2022-08-26T09:07:17.756Z,5.43
2022-08-26T09:09:58.551Z,10.65
2022-08-26T09:12:29.976Z,5.25
2022-08-26T09:15:06.564Z,4.38
2022-08-26T09:17:56.358Z,4.55
2022-08-26T09:20:35.640Z,4.57
2022-08-26T09:23:04.502Z,4.47
2022-08-26T09:25:32.582Z,6.35
2022-08-26T09:28:01.355Z,4.93
2022-08-26T09:30:34.829Z,5.20
2022-08-26T09:33:11.154Z,5.38
2022-08-26T09:35:41.656Z,5.35
2022-08-26T09:38:33.826Z,5.63
2022-08-26T09:41:20.441Z,5.65
2022-08-26T09:44:14.737Z,5.18
2022-08-26T09:46:54.364Z,5.32
2022-08-26T09:49:35.567Z,5.22
2022-08-26T09:52:25.997Z,5.07
2022-08-26T09:55:12.513Z,5.25
2022-08-26T09:57:54.904Z,4.93
2022-08-26T10:00:43.677Z,5.30
2022-08-26T10:03:22.576Z,5.13
2022-08-26T10:06:02.692Z,5.35
2022-08-26T10:08:52.011Z,5.45
2022-08-26T10:11:33.657Z,6.32
2022-08-26T10:14:08.084Z,5.35
2022-08-26T10:16:48.618Z,5.15
2022-08-26T10:19:21.412Z,4.97
2022-08-26T10:22:00.806Z,4.93
2022-08-26T10:24:39.645Z,5.22
2022-08-26T10:27:12.116Z,4.60
2022-08-26T10:29:44.114Z,5.22
2022-08-26T10:32:31.364Z,5.03
2022-08-26T10:34:58.925Z,4.65
2022-08-26T10:37:43.722Z,4.90
2022-08-26T10:40:25.345Z,4.78
2022-08-26T10:45:30.135Z,5.10
2022-08-26T10:48:01.668Z,4.70
2022-08-26T10:53:12.029Z,5.20
2022-08-26T10:55:55.925Z,4.80
2022-08-26T10:58:28.223Z,5.28
2022-08-26T11:01:26.364Z,4.85
2022-08-26T11:04:05.248Z,4.95
2022-08-26T11:06:33.092Z,4.82
2022-08-26T11:11:42.167Z,5.18
2022-08-26T11:14:28.699Z,5.80
2022-08-26T11:16:59.002Z,6.18
2022-08-26T11:19:59.514Z,5.88
2022-08-26T11:22:33.673Z,5.75
2022-08-26T11:25:05.110Z,5.78
2022-08-26T11:27:35.504Z,6.10
2022-08-26T11:30:07.504Z,5.32
2022-08-26T11:32:35.046Z,7.25
2022-08-26T11:35:06.748Z,7.43
2022-08-26T11:37:57.259Z,5.60
2022-08-26T11:40:31.414Z,5.97
2022-08-26T11:43:07.657Z,5.90
2022-08-26T11:45:41.797Z,5.65
2022-08-26T11:48:20.969Z,6.32
2022-08-26T11:51:25.246Z,6.07
2022-08-26T11:54:10.314Z,5.68
2022-08-26T11:56:39.426Z,5.85
2022-08-26T11:59:13.063Z,6.40
2022-08-26T12:01:44.591Z,6.22
2022-08-26T12:04:22.053Z,5.93
2022-08-26T12:06:51.843Z,7.25
2022-08-26T12:09:22.691Z,6.70
2022-08-26T12:11:50.416Z,5.93
2022-08-26T12:14:22.246Z,5.55
2022-08-26T12:16:50.268Z,6.43
2022-08-26T12:19:32.684Z,7.30
2022-08-26T12:22:26.635Z,5.72
2022-08-26T12:24:58.666Z,5.70
2022-08-26T12:27:34.355Z,6.97
2022-08-26T12:30:12.316Z,5.82
2022-08-26T12:32:57.821Z,5.65
2022-08-26T12:35:26.894Z,5.80
2022-08-26T12:37:57.896Z,6.32
2022-08-26T12:40:31.507Z,5.63
2022-08-26T12:43:01.957Z,6.50
2022-08-26T12:45:29.475Z,5.68
2022-08-26T12:48:01.251Z,6.25
2022-08-26T12:50:32.593Z,5.72
2022-08-26T12:53:03.684Z,6.32
2022-08-26T12:55:40.062Z,6.10
2022-08-26T12:58:16.786Z,5.45
2022-08-26T13:00:50.373Z,6.78
2022-08-26T13:03:34.793Z,6.05
2022-08-26T13:06:23.192Z,5.95
2022-08-26T13:08:51.705Z,5.53
2022-08-26T13:11:23.619Z,6.03
2022-08-26T13:16:22.340Z,5.32
2022-08-26T13:18:53.095Z,5.97
2022-08-26T13:21:27.018Z,6.05
2022-08-26T13:23:55.133Z,5.70
2022-08-26T13:26:25.646Z,5.50
2022-08-26T13:29:01.490Z,5.50
2022-08-26T13:31:32.573Z,5.50
2022-08-26T13:34:01.557Z,5.55
2022-08-26T13:36:29.334Z,6.65
2022-08-26T13:38:57.162Z,6.00
2022-08-26T13:41:29.238Z,5.38
2022-08-26T13:43:59.498Z,6.03
2022-08-26T13:46:28.200Z,6.15
2022-08-26T13:48:57.330Z,5.93
2022-08-26T13:51:25.919Z,6.22
2022-08-26T13:53:53.495Z,5.30
2022-08-26T13:56:21.479Z,5.75
2022-08-26T13:58:49.540Z,6.22
2022-08-26T14:01:17.836Z,5.43
2022-08-26T14:03:46.185Z,5.88
2022-08-26T14:06:13.844Z,5.25
2022-08-26T14:08:41.816Z,6.22
2022-08-26T14:11:09.828Z,6.15
2022-08-26T14:13:37.683Z,5.30
2022-08-26T14:16:10.456Z,5.55
2022-08-26T14:18:43.640Z,5.30
2022-08-26T14:21:14.353Z,5.53
2022-08-26T14:23:42.393Z,5.60
2022-08-26T14:26:11.659Z,5.57
2022-08-26T14:28:55.926Z,5.18
2022-08-26T14:31:24.490Z,5.70
2022-08-26T14:33:51.955Z,5.82
2022-08-26T14:36:28.309Z,6.07
2022-08-26T14:38:58.202Z,5.47
2022-08-26T14:41:27.066Z,5.97
2022-08-26T14:44:10.340Z,5.60
2022-08-26T14:49:10.663Z,6.10
2022-08-26T14:51:39.697Z,5.95
2022-08-26T14:54:14.236Z,5.00
2022-08-26T14:56:51.527Z,5.30
2022-08-26T14:59:22.442Z,5.05
2022-08-26T15:01:50.168Z,5.60
2022-08-26T15:04:18.356Z,5.60
2022-08-26T15:06:46.251Z,5.65
2022-08-26T15:09:14.348Z,5.57
2022-08-26T15:11:42.012Z,5.55
2022-08-26T15:14:14.684Z,6.15
2022-08-26T15:16:48.362Z,5.57
2022-08-26T15:19:16.701Z,5.80
2022-08-26T15:21:45.628Z,5.90
2022-08-26T15:24:14.717Z,6.25
2022-08-26T15:26:42.553Z,6.63
2022-08-26T15:29:10.282Z,5.80
2022-08-26T15:31:37.936Z,6.10
2022-08-26T15:34:10.995Z,5.90
2022-08-26T15:36:42.731Z,6.05
2022-08-26T15:39:10.978Z,5.63
2022-08-26T15:41:38.440Z,5.53
2022-08-26T15:44:07.271Z,5.35
2022-08-26T15:46:35.618Z,5.65
2022-08-26T15:49:05.306Z,5.13
2022-08-26T15:51:45.668Z,5.25
2022-08-26T15:54:16.633Z,5.80
2022-08-26T15:56:44.782Z,6.10
2022-08-26T15:59:12.559Z,6.03
2022-08-26T16:01:40.166Z,6.43
2022-08-26T16:04:07.750Z,6.40
2022-08-26T16:06:37.488Z,5.40
2022-08-26T16:09:06.127Z,5.10
2022-08-26T16:11:35.919Z,6.20
2022-08-26T16:14:04.857Z,6.38
2022-08-26T16:16:32.789Z,5.40
2022-08-26T16:19:04.259Z,6.15
2022-08-26T16:21:35.138Z,5.93
2022-08-26T16:24:04.611Z,6.25
2022-08-26T16:26:34.426Z,5.90
2022-08-26T16:29:04.525Z,5.72
2022-08-26T16:31:33.240Z,6.05
2022-08-26T16:34:00.722Z,5.05
2022-08-26T16:36:28.157Z,6.38
2022-08-26T16:38:56.521Z,5.70
2022-08-26T16:41:25.701Z,6.43
2022-08-26T16:43:53.761Z,6.55
2022-08-26T16:46:25.554Z,6.18
2022-08-26T16:51:23.485Z,6.20
2022-08-26T16:53:51.763Z,7.03
2022-08-26T16:56:22.791Z,6.32
2022-08-26T16:58:50.678Z,5.73
2022-08-26T17:01:18.392Z,5.80
2022-08-26T17:03:45.918Z,5.63
2022-08-26T17:06:13.605Z,7.40
2022-08-26T17:08:42.062Z,5.55
2022-08-26T17:11:10.438Z,6.45
2022-08-26T17:13:39.053Z,7.32
2022-08-26T17:16:08.917Z,6.05
2022-08-26T17:18:36.733Z,6.15
2022-08-26T17:21:06.777Z,6.47
2022-08-26T17:23:34.951Z,6.78
2022-08-26T17:26:03.065Z,6.18
2022-08-26T17:28:30.722Z,5.90
2022-08-26T17:30:59.307Z,5.88
2022-08-26T17:33:27.724Z,5.80
2022-08-26T17:35:56.310Z,5.70
2022-08-26T17:38:24.309Z,6.03
2022-08-26T17:40:52.200Z,5.70
2022-08-26T17:43:19.770Z,6.50
2022-08-26T17:45:47.348Z,7.07
2022-08-26T17:48:14.990Z,6.00
2022-08-26T17:50:43.619Z,6.20
2022-08-26T17:53:19.135Z,8.60
2022-08-26T17:55:48.719Z,5.95
2022-08-26T17:58:18.692Z,7.13
2022-08-26T18:00:52.291Z,7.07
2022-08-26T18:03:20.137Z,6.25
2022-08-26T18:05:49.528Z,6.20
2022-08-26T18:08:17.420Z,7.05
2022-08-26T18:10:44.943Z,6.63
2022-08-26T18:13:14.823Z,7.35
2022-08-26T18:15:45.427Z,8.05
2022-08-26T18:18:15.043Z,6.88
2022-08-26T18:20:44.039Z,6.97
2022-08-26T18:23:12.667Z,6.68
2022-08-26T18:25:44.151Z,7.07
2022-08-26T18:28:11.608Z,6.50
2022-08-26T18:30:41.419Z,6.57
2022-08-26T18:33:09.509Z,7.45
2022-08-26T18:35:42.155Z,6.72
2022-08-26T18:38:11.847Z,6.80
2022-08-26T18:40:42.125Z,6.72
2022-08-26T18:43:10.071Z,6.80
2022-08-26T18:45:37.590Z,7.13
2022-08-26T18:48:05.479Z,6.95
2022-08-26T18:50:33.070Z,6.35
2022-08-26T18:53:02.486Z,6.45
2022-08-26T18:55:30.029Z,6.07
2022-08-26T18:57:57.455Z,6.70
2022-08-26T19:00:24.901Z,6.05
2022-08-26T19:02:52.472Z,6.85
2022-08-26T19:05:23.490Z,6.70
2022-08-26T19:07:51.897Z,7.13
2022-08-26T19:10:19.501Z,6.82
2022-08-26T19:12:46.995Z,7.90
2022-08-26T19:15:19.374Z,6.72
2022-08-26T19:17:47.846Z,6.75
2022-08-26T19:20:15.349Z,7.10
2022-08-26T19:22:42.840Z,6.32
2022-08-26T19:25:10.590Z,7.00
2022-08-26T19:27:38.258Z,6.25
2022-08-26T19:30:07.181Z,6.93
2022-08-26T19:32:34.605Z,6.82
2022-08-26T19:35:02.186Z,6.78
2022-08-26T19:37:29.637Z,7.10
2022-08-26T19:39:57.231Z,7.47
2022-08-26T19:42:24.742Z,7.05
2022-08-26T19:45:20.199Z,7.82
2022-08-26T19:47:53.898Z,7.80
2022-08-26T19:50:22.350Z,7.00
2022-08-26T19:52:49.930Z,7.10
2022-08-26T19:55:18.732Z,7.55
2022-08-26T19:57:46.342Z,6.60
2022-08-26T20:00:18.030Z,6.57
2022-08-26T20:02:46.704Z,6.95
2022-08-26T20:05:15.898Z,7.75
2022-08-26T20:07:43.690Z,6.63
2022-08-26T20:10:15.252Z,7.43
2022-08-26T20:12:43.431Z,7.45
2022-08-26T20:15:12.948Z,7.55
2022-08-26T20:17:41.113Z,8.07
2022-08-26T20:20:33.386Z,6.97
2022-08-26T20:23:03.629Z,7.18
2022-08-26T20:25:32.755Z,7.43
2022-08-26T20:28:00.873Z,7.28
2022-08-26T20:30:28.605Z,6.78
2022-08-26T20:32:56.177Z,7.72
2022-08-26T20:35:24.022Z,7.28
2022-08-26T20:37:51.619Z,7.03
2022-08-26T20:40:19.145Z,7.32
2022-08-26T20:42:46.638Z,7.10
2022-08-26T20:45:14.165Z,7.68
2022-08-26T20:47:42.759Z,7.40
2022-08-26T20:50:10.461Z,7.47
2022-08-26T20:52:37.958Z,6.88
2022-08-26T20:55:05.930Z,7.65
2022-08-26T20:57:33.655Z,6.30
2022-08-26T21:00:01.262Z,6.22
2022-08-26T21:02:29.006Z,7.28
2022-08-26T21:04:57.601Z,6.88
2022-08-26T21:07:25.149Z,6.95
2022-08-26T21:09:52.652Z,7.10
2022-08-26T21:12:20.208Z,6.95
2022-08-26T21:14:49.621Z,7.35
2022-08-26T21:17:17.527Z,7.55
2022-08-26T21:19:45.078Z,6.82
2022-08-26T21:22:12.538Z,7.30
2022-08-26T21:24:40.150Z,7.03
2022-08-26T21:27:07.719Z,7.28
2022-08-26T21:29:36.351Z,7.25
2022-08-26T21:32:05.065Z,6.75
2022-08-26T21:34:32.652Z,7.13
2022-08-26T21:37:00.603Z,7.57
2022-08-26T21:39:28.239Z,6.90
2022-08-26T21:41:55.797Z,8.27
2022-08-26T21:44:23.282Z,8.27
2022-08-26T21:46:50.840Z,7.68
2022-08-26T21:49:18.370Z,6.50
2022-08-26T21:51:47.924Z,8.05
2022-08-26T21:54:15.661Z,6.63
2022-08-26T21:56:46.665Z,6.72
2022-08-26T21:59:17.729Z,7.43
2022-08-26T22:01:45.902Z,7.07
2022-08-26T22:04:13.457Z,7.07
2022-08-26T22:06:46.770Z,6.63
2022-08-26T22:09:16.133Z,7.13
2022-08-26T22:11:44.417Z,7.13
2022-08-26T22:14:12.328Z,7.13
2022-08-26T22:16:40.199Z,7.00
2022-08-26T22:19:08.281Z,6.68
2022-08-26T22:21:41.485Z,7.22
2022-08-26T22:24:12.132Z,6.85
2022-08-26T22:26:39.635Z,7.72
2022-08-26T22:29:07.626Z,7.57
2022-08-26T22:31:37.855Z,7.95
2022-08-26T22:34:09.010Z,7.82
2022-08-26T22:36:42.857Z,6.95
2022-08-26T22:39:13.356Z,6.78
2022-08-26T22:41:43.019Z,7.35
2022-08-26T22:44:11.871Z,8.25
2022-08-26T22:46:41.066Z,8.05
2022-08-26T22:49:10.779Z,8.05
2022-08-26T22:51:38.811Z,8.32
2022-08-26T22:54:06.933Z,7.88
2022-08-26T22:56:35.127Z,7.30
2022-08-26T22:59:03.743Z,8.70
2022-08-26T23:01:31.376Z,8.90
2022-08-26T23:03:58.856Z,8.90
2022-08-26T23:06:26.398Z,8.82
2022-08-26T23:08:54.031Z,9.15
2022-08-26T23:11:21.494Z,8.95
2022-08-26T23:13:49.043Z,9.35
2022-08-26T23:16:16.775Z,9.23
2022-08-26T23:18:44.312Z,8.75
2022-08-26T23:21:11.965Z,9.77
2022-08-26T23:23:39.621Z,10.30
2022-08-26T23:26:08.121Z,9.98
2022-08-26T23:28:36.846Z,10.20
2022-08-26T23:31:05.672Z,9.13
2022-08-26T23:33:51.619Z,9.27
2022-08-26T23:36:22.828Z,10.55
2022-08-26T23:38:52.783Z,11.40
2022-08-26T23:41:24.418Z,11.70
2022-08-26T23:43:52.883Z,11.48
2022-08-26T23:46:20.758Z,11.93
2022-08-26T23:48:48.384Z,11.23
2022-08-26T23:51:34.744Z,12.80
2022-08-26T23:54:02.279Z,12.45
2022-08-26T23:56:29.817Z,12.77
2022-08-26T23:58:57.256Z,14.13
